Time;durP1;ratioP1;P1;durP2;ratioP2;P2;SDS_P1;SDS_P2;PMS_P1;PMS_P2;Temp;Humidity;BMP_temperature;BMP_pressure;BME280_temperature;BME280_humidity;BME280_pressure;Samples;Min_cycle;Max_cycle;Signal;HPM_P1;HPM_P2
2021/08/31 00:00:14;;;;;;;14.90;5.70;;;;;;;14.43;90.09;99802.64;111938;1203;25430;-69
2021/08/31 00:03:03;;;;;;;14.50;5.90;;;;;;;14.42;90.27;99801.96;112516;1201;22498;-72
2021/08/31 00:05:34;;;;;;;15.00;5.50;;;;;;;14.42;90.27;99800.66;112728;1201;22539;-73
2021/08/31 00:08:06;;;;;;;14.50;5.90;;;;;;;14.41;90.41;99794.06;112428;1201;22454;-72
2021/08/31 00:10:37;;;;;;;14.70;5.80;;;;;;;14.41;90.30;99792.48;112414;1201;22466;-73
2021/08/31 00:13:10;;;;;;;14.10;4.40;;;;;;;14.40;90.52;99787.34;112611;1201;22449;-69
2021/08/31 00:15:42;;;;;;;14.90;5.10;;;;;;;14.40;90.60;99782.23;112465;1201;22463;-71
2021/08/31 00:18:12;;;;;;;13.20;5.20;;;;;;;14.40;90.57;99784.63;112355;1201;22455;-69
2021/08/31 00:20:46;;;;;;;9.80;3.30;;;;;;;14.40;90.61;99787.38;112448;1201;22592;-69
2021/08/31 00:23:16;;;;;;;11.80;3.70;;;;;;;14.40;90.83;99792.79;112420;1201;22453;-67
2021/08/31 00:25:52;;;;;;;11.10;3.10;;;;;;;14.39;91.05;99794.48;111753;1201;22428;-67
2021/08/31 00:28:24;;;;;;;7.80;2.40;;;;;;;14.38;91.07;99787.39;112502;1201;22447;-68
2021/08/31 00:30:57;;;;;;;9.00;2.90;;;;;;;14.38;91.09;99787.90;111781;1201;25440;-66
2021/08/31 00:33:29;;;;;;;7.10;2.10;;;;;;;14.38;91.27;99794.34;111796;1201;25208;-65
2021/08/31 00:36:03;;;;;;;8.10;2.90;;;;;;;14.37;91.32;99792.35;111912;1201;24213;-65
2021/08/31 00:38:35;;;;;;;8.00;2.30;;;;;;;14.37;91.33;99795.56;111842;1201;22464;-65
2021/08/31 00:41:08;;;;;;;8.30;3.00;;;;;;;14.36;91.39;99794.48;111841;1201;22451;-64
2021/08/31 00:43:47;;;;;;;8.80;2.10;;;;;;;14.37;91.42;99799.14;111758;1201;25444;-64
2021/08/31 00:46:21;;;;;;;8.50;2.50;;;;;;;14.36;91.47;99796.58;111897;1201;22452;-64
2021/08/31 00:48:54;;;;;;;7.20;2.50;;;;;;;14.37;91.63;99798.56;112065;1201;22503;-66
2021/08/31 00:51:26;;;;;;;6.30;2.20;;;;;;;14.36;92.21;99799.95;111867;1201;22470;-66
2021/08/31 00:53:57;;;;;;;7.00;2.10;;;;;;;14.36;91.82;99796.98;111932;1201;22437;-65
2021/08/31 00:56:28;;;;;;;5.40;1.60;;;;;;;14.36;91.67;99797.71;111738;1201;24188;-64
2021/08/31 00:59:01;;;;;;;7.50;1.80;;;;;;;14.37;91.67;99796.63;111857;1201;24957;-65
2021/08/31 01:01:33;;;;;;;6.80;2.10;;;;;;;14.37;91.69;99792.61;111786;1201;22450;-64
2021/08/31 01:04:04;;;;;;;8.00;2.10;;;;;;;14.37;91.68;99790.82;111966;1201;24032;-64
2021/08/31 01:06:37;;;;;;;6.70;1.90;;;;;;;14.38;91.62;99790.87;112215;1201;22598;-64
2021/08/31 01:09:08;;;;;;;8.00;2.30;;;;;;;14.38;91.66;99792.90;111773;1201;22897;-65
2021/08/31 01:11:40;;;;;;;7.00;1.80;;;;;;;14.39;91.62;99794.69;111878;1201;22493;-67
2021/08/31 01:14:11;;;;;;;5.20;1.40;;;;;;;14.39;91.66;99791.11;111949;1201;22690;-67
2021/08/31 01:16:42;;;;;;;5.10;1.40;;;;;;;14.39;91.71;99786.52;111675;1201;22445;-64
2021/08/31 01:19:13;;;;;;;4.70;1.40;;;;;;;14.39;91.74;99795.20;112147;1201;25216;-64
2021/08/31 01:21:43;;;;;;;4.20;1.40;;;;;;;14.38;91.77;99797.49;111774;1201;24117;-64
2021/08/31 01:24:14;;;;;;;5.10;1.40;;;;;;;14.38;91.78;99792.30;111798;1201;22436;-63
2021/08/31 01:26:45;;;;;;;5.20;1.30;;;;;;;14.38;91.85;99795.36;111725;1201;25139;-65
2021/08/31 01:29:16;;;;;;;4.30;1.30;;;;;;;14.38;91.77;99792.55;111780;1201;22439;-64
2021/08/31 01:31:47;;;;;;;8.30;1.50;;;;;;;14.38;91.96;99794.13;111771;1201;22452;-63
2021/08/31 01:34:17;;;;;;;6.70;1.50;;;;;;;14.38;91.87;99795.51;111956;1201;22448;-63
2021/08/31 01:36:48;;;;;;;6.10;1.50;;;;;;;14.38;91.91;99790.24;111808;1201;24271;-64
2021/08/31 01:39:20;;;;;;;7.10;1.80;;;;;;;14.39;92.00;99793.71;111818;1201;22451;-64
2021/08/31 01:41:51;;;;;;;6.00;2.00;;;;;;;14.40;91.95;99786.66;111799;1201;22986;-65
2021/08/31 01:44:22;;;;;;;7.00;2.10;;;;;;;14.41;92.12;99790.08;111970;1201;22448;-64
2021/08/31 01:46:53;;;;;;;7.40;1.90;;;;;;;14.41;92.08;99788.75;111745;1201;25906;-64
2021/08/31 01:49:24;;;;;;;6.50;2.10;;;;;;;14.42;92.31;99789.10;112035;1201;25420;-64
2021/08/31 01:51:56;;;;;;;7.40;2.40;;;;;;;14.42;92.29;99788.14;111950;1201;22435;-63
2021/08/31 01:54:28;;;;;;;7.20;1.80;;;;;;;14.41;92.36;99785.38;111695;1201;25088;-63
2021/08/31 01:56:59;;;;;;;6.90;2.10;;;;;;;14.42;92.41;99790.14;111579;1201;22452;-64
2021/08/31 01:59:32;;;;;;;7.00;2.10;;;;;;;14.42;92.62;99789.88;111708;1201;24165;-64
2021/08/31 02:02:04;;;;;;;6.60;1.60;;;;;;;14.42;92.71;99793.80;111656;1197;22444;-64
2021/08/31 02:04:36;;;;;;;5.30;1.50;;;;;;;14.42;92.71;99795.09;111755;1202;25106;-64
2021/08/31 02:07:10;;;;;;;6.40;1.70;;;;;;;14.43;93.06;99792.31;111631;1196;24064;-64
2021/08/31 02:09:41;;;;;;;5.90;2.00;;;;;;;14.42;93.14;99789.45;111776;1201;22449;-64
2021/08/31 02:12:13;;;;;;;6.20;2.20;;;;;;;14.42;93.13;99788.90;111681;1201;25019;-64
2021/08/31 02:14:49;;;;;;;5.50;1.90;;;;;;;14.42;93.31;99790.95;111723;1201;22426;-64
2021/08/31 02:17:20;;;;;;;8.00;2.60;;;;;;;14.42;93.17;99787.73;111795;1201;24086;-64
2021/08/31 02:19:51;;;;;;;8.00;2.10;;;;;;;14.42;93.26;99780.98;111688;1201;25067;-64
2021/08/31 02:22:25;;;;;;;7.40;1.80;;;;;;;14.44;93.28;99786.55;111735;1201;25092;-64
2021/08/31 02:24:56;;;;;;;7.30;2.40;;;;;;;14.45;93.39;99781.80;111824;1201;25073;-64
2021/08/31 02:27:27;;;;;;;6.50;2.10;;;;;;;14.47;93.46;99784.19;111699;1201;26495;-64
2021/08/31 02:30:02;;;;;;;8.40;2.40;;;;;;;14.49;93.47;99780.14;111674;1201;25066;-64
2021/08/31 02:32:34;;;;;;;9.20;3.10;;;;;;;14.50;93.41;99779.36;111949;1201;24034;-63
2021/08/31 02:35:10;;;;;;;7.10;2.40;;;;;;;14.51;93.38;99778.19;111942;1201;22435;-64
2021/08/31 02:37:41;;;;;;;8.70;2.40;;;;;;;14.53;93.37;99775.73;111749;1201;24107;-63
2021/08/31 02:40:16;;;;;;;6.20;1.90;;;;;;;14.53;93.42;99770.06;111726;1201;25759;-63
2021/08/31 02:42:47;;;;;;;6.60;2.40;;;;;;;14.54;93.31;99771.86;111981;1201;22481;-64
2021/08/31 02:45:18;;;;;;;6.30;2.20;;;;;;;14.54;93.40;99771.85;111775;1201;23825;-64
2021/08/31 02:47:50;;;;;;;6.70;1.90;;;;;;;14.55;93.33;99773.88;111744;1201;22417;-64
2021/08/31 02:50:21;;;;;;;6.40;1.90;;;;;;;14.55;93.38;99778.59;111849;1201;24109;-64
2021/08/31 02:52:55;;;;;;;7.00;2.10;;;;;;;14.56;93.43;99776.80;111697;1201;24907;-64
2021/08/31 02:55:26;;;;;;;6.60;1.90;;;;;;;14.57;93.41;99774.09;111687;1201;25141;-64
2021/08/31 02:57:57;;;;;;;5.20;1.70;;;;;;;14.57;93.34;99773.83;111931;1201;22956;-64
2021/08/31 03:00:31;;;;;;;5.80;1.70;;;;;;;14.57;93.47;99768.21;112032;1201;25023;-64
2021/08/31 03:03:04;;;;;;;5.40;1.60;;;;;;;14.56;93.47;99771.90;112091;1201;22436;-64
2021/08/31 03:05:34;;;;;;;6.30;1.70;;;;;;;14.56;93.54;99772.60;112069;1201;25360;-64
2021/08/31 03:08:09;;;;;;;5.50;2.00;;;;;;;14.56;93.28;99771.34;111741;1201;22456;-64
2021/08/31 03:10:41;;;;;;;4.00;1.30;;;;;;;14.56;93.33;99775.31;111698;1201;24182;-64
2021/08/31 03:13:12;;;;;;;4.50;1.30;;;;;;;14.55;93.26;99774.91;111708;1201;24994;-64
2021/08/31 03:15:45;;;;;;;6.00;1.60;;;;;;;14.55;93.30;99774.91;111747;1201;22439;-65
2021/08/31 03:18:16;;;;;;;5.60;1.60;;;;;;;14.55;93.29;99776.24;111856;1201;22472;-63
2021/08/31 03:20:49;;;;;;;4.60;1.40;;;;;;;14.54;93.38;99780.99;111917;1201;22487;-64
2021/08/31 03:23:21;;;;;;;3.30;1.10;;;;;;;14.54;93.45;99780.79;111958;1201;24205;-65
2021/08/31 03:25:52;;;;;;;4.50;1.30;;;;;;;14.53;93.47;99778.84;112177;1196;24189;-58
2021/08/31 03:28:23;;;;;;;4.60;1.20;;;;;;;14.53;93.57;99784.11;111612;1201;22466;-58
2021/08/31 03:30:55;;;;;;;4.90;1.30;;;;;;;14.52;93.41;99779.73;111746;1201;22449;-59
2021/08/31 03:33:37;;;;;;;;;;;;;;;;;;;;;
2021/08/31 03:36:10;;;;;;;4.60;1.30;;;;;;;14.53;93.37;99772.86;111556;1201;24069;-59
2021/08/31 03:38:41;;;;;;;10.70;1.20;;;;;;;14.52;93.29;99774.36;111756;1201;24231;-59
2021/08/31 03:41:13;;;;;;;5.50;1.10;;;;;;;14.51;93.51;99778.60;111473;1201;22945;-56
2021/08/31 03:43:44;;;;;;;4.40;1.20;;;;;;;14.51;93.44;99776.45;111473;1202;22461;-57
2021/08/31 03:46:15;;;;;;;5.70;1.40;;;;;;;14.50;93.50;99777.38;115318;1202;22449;-59
2021/08/31 03:48:46;;;;;;;5.90;1.70;;;;;;;14.50;93.49;99778.77;111936;1201;22449;-60
2021/08/31 03:51:17;;;;;;;5.90;1.20;;;;;;;14.50;93.46;99777.74;111959;1201;22477;-60
2021/08/31 03:53:48;;;;;;;4.40;1.40;;;;;;;14.49;93.53;99777.43;111853;1201;22464;-59
2021/08/31 03:56:23;;;;;;;5.70;1.50;;;;;;;14.49;93.39;99779.63;111647;1201;25694;-60
2021/08/31 03:58:53;;;;;;;4.30;1.20;;;;;;;14.48;93.49;99784.80;111652;1201;22528;-59
2021/08/31 04:01:25;;;;;;;5.00;1.40;;;;;;;14.47;93.47;99778.41;111675;1201;24088;-59
2021/08/31 04:03:58;;;;;;;3.70;1.40;;;;;;;14.47;93.50;99784.80;111850;1201;22439;-63
2021/08/31 04:06:29;;;;;;;5.70;1.60;;;;;;;14.46;93.49;99789.76;111955;1201;24066;-61
2021/08/31 04:09:00;;;;;;;4.90;1.40;;;;;;;14.45;93.51;99783.58;111827;1201;25040;-59
2021/08/31 04:11:31;;;;;;;5.40;1.50;;;;;;;14.44;93.41;99781.34;111731;1201;24111;-61
2021/08/31 04:14:03;;;;;;;6.80;1.60;;;;;;;14.43;93.45;99784.77;111760;1201;25082;-59
2021/08/31 04:16:35;;;;;;;5.30;1.70;;;;;;;14.42;93.49;99784.96;111640;1201;25071;-60
2021/08/31 04:19:07;;;;;;;5.50;1.60;;;;;;;14.42;93.50;99781.70;111819;1201;24197;-62
2021/08/31 04:21:38;;;;;;;4.70;1.40;;;;;;;14.41;93.65;99783.14;111685;1201;25068;-59
2021/08/31 04:24:09;;;;;;;5.60;1.50;;;;;;;14.40;93.74;99780.79;111732;1201;25142;-60
2021/08/31 04:26:40;;;;;;;4.30;1.30;;;;;;;14.40;93.67;99783.92;111898;1201;26376;-60
2021/08/31 04:29:11;;;;;;;4.50;1.50;;;;;;;14.39;93.74;99780.29;111933;1201;22622;-58
2021/08/31 04:31:43;;;;;;;4.20;1.40;;;;;;;14.39;93.65;99783.60;111795;1201;24100;-60
2021/08/31 04:34:14;;;;;;;6.30;1.70;;;;;;;14.39;93.60;99785.49;111758;1201;22449;-60
2021/08/31 04:36:49;;;;;;;5.00;1.70;;;;;;;14.38;93.67;99778.75;111785;1201;22909;-61
2021/08/31 04:39:19;;;;;;;4.10;1.30;;;;;;;14.39;93.74;99781.41;112188;1201;23132;-62
2021/08/31 04:41:51;;;;;;;4.70;1.20;;;;;;;14.39;93.68;99785.80;111705;1201;22462;-60
2021/08/31 04:44:23;;;;;;;4.30;1.40;;;;;;;14.39;93.69;99783.96;111897;1201;25161;-60
2021/08/31 04:46:55;;;;;;;4.40;1.30;;;;;;;14.39;93.68;99787.59;111752;1202;22451;-60
2021/08/31 04:49:26;;;;;;;5.40;1.30;;;;;;;14.39;93.82;99789.27;111797;1201;22449;-59
2021/08/31 04:51:57;;;;;;;4.00;1.10;;;;;;;14.38;93.74;99790.10;111877;1201;22445;-60
2021/08/31 04:54:27;;;;;;;3.80;1.20;;;;;;;14.39;93.84;99787.39;112118;1198;28952;-59
2021/08/31 04:56:59;;;;;;;4.00;1.20;;;;;;;14.39;93.67;99789.39;111813;1201;25353;-58
2021/08/31 04:59:30;;;;;;;3.80;1.20;;;;;;;14.40;93.76;99791.72;111567;1201;25035;-59
2021/08/31 05:02:01;;;;;;;3.40;1.20;;;;;;;14.41;93.74;99788.55;111527;1201;23109;-57
2021/08/31 05:04:32;;;;;;;4.50;1.30;;;;;;;14.41;93.80;99787.94;111573;1201;22449;-58
2021/08/31 05:07:06;;;;;;;3.50;1.00;;;;;;;14.42;93.71;99789.15;111661;1201;25082;-58
2021/08/31 05:09:38;;;;;;;5.50;1.30;;;;;;;14.43;93.86;99787.02;111634;1201;24062;-57
2021/08/31 05:12:12;;;;;;;5.20;1.30;;;;;;;14.44;93.81;99787.41;111887;1201;22725;-58
2021/08/31 05:14:43;;;;;;;3.80;1.00;;;;;;;14.45;94.00;99784.30;111808;1202;24112;-58
2021/08/31 05:17:15;;;;;;;7.30;0.90;;;;;;;14.45;94.08;99783.67;111546;1201;22477;-58
2021/08/31 05:19:47;;;;;;;3.10;0.90;;;;;;;14.47;94.20;99788.58;111466;1201;24233;-59
2021/08/31 05:22:22;;;;;;;2.70;0.90;;;;;;;14.46;94.12;99786.85;111608;1201;22385;-60
2021/08/31 05:24:55;;;;;;;3.70;1.00;;;;;;;14.46;94.22;99794.80;111525;1202;22456;-59
2021/08/31 05:27:27;;;;;;;3.90;0.70;;;;;;;14.44;94.42;99794.50;112001;1201;22439;-57
2021/08/31 05:29:58;;;;;;;3.00;0.80;;;;;;;14.44;94.33;99788.39;111610;1201;24095;-58
2021/08/31 05:32:30;;;;;;;3.10;0.80;;;;;;;14.43;94.49;99787.88;111725;1201;22463;-58
2021/08/31 05:35:01;;;;;;;2.30;0.80;;;;;;;14.41;94.66;99789.36;111681;1201;24208;-58
2021/08/31 05:37:32;;;;;;;2.10;0.70;;;;;;;14.40;94.74;99792.64;111685;1201;24007;-59
2021/08/31 05:40:04;;;;;;;3.40;0.80;;;;;;;14.38;94.87;99791.22;111864;1202;25346;-60
2021/08/31 05:42:37;;;;;;;2.70;0.90;;;;;;;14.36;95.05;99792.80;111994;1201;22394;-59
2021/08/31 05:45:12;;;;;;;2.80;0.70;;;;;;;14.36;95.04;99802.30;112152;1202;22449;-59
2021/08/31 05:47:45;;;;;;;2.60;0.80;;;;;;;14.35;95.35;99800.78;111891;1201;24099;-61
2021/08/31 05:50:16;;;;;;;2.70;0.60;;;;;;;14.34;95.66;99803.48;111887;1201;22497;-60
2021/08/31 05:52:47;;;;;;;3.60;0.80;;;;;;;14.34;95.75;99805.52;111791;1201;24108;-60
2021/08/31 05:55:18;;;;;;;1.90;0.70;;;;;;;14.34;95.85;99811.84;111799;1201;24215;-60
2021/08/31 05:57:50;;;;;;;2.70;0.70;;;;;;;14.34;95.68;99804.39;111937;1201;22451;-59
2021/08/31 06:00:25;;;;;;;2.60;0.70;;;;;;;14.34;96.02;99808.27;112045;1201;24038;-60
2021/08/31 06:02:58;;;;;;;2.30;0.70;;;;;;;14.35;96.45;99808.65;111865;1201;24382;-60
2021/08/31 06:05:30;;;;;;;3.00;0.90;;;;;;;14.36;96.33;99808.44;111831;1201;23533;-60
2021/08/31 06:08:01;;;;;;;4.30;1.10;;;;;;;14.37;96.23;99812.05;111821;1201;22677;-60
2021/08/31 06:10:32;;;;;;;5.30;1.30;;;;;;;14.38;96.66;99816.39;111927;1201;24088;-59
2021/08/31 06:13:03;;;;;;;4.40;1.10;;;;;;;14.39;96.40;99818.79;111866;1201;25400;-60
2021/08/31 06:15:34;;;;;;;6.60;1.20;;;;;;;14.39;96.62;99818.02;111811;1202;22494;-58
2021/08/31 06:18:05;;;;;;;4.00;1.20;;;;;;;14.42;96.67;99823.36;111999;1201;22443;-60
2021/08/31 06:20:36;;;;;;;3.30;1.10;;;;;;;14.43;96.59;99828.63;111853;1201;22449;-60
2021/08/31 06:23:08;;;;;;;3.90;1.20;;;;;;;14.45;96.55;99825.55;112048;1202;22455;-61
2021/08/31 06:25:43;;;;;;;4.90;1.10;;;;;;;14.45;96.63;99826.41;112174;1201;23750;-61
2021/08/31 06:28:21;;;;;;;4.10;1.30;;;;;;;14.45;96.65;99825.70;112150;1201;25207;-60
2021/08/31 06:30:53;;;;;;;5.90;1.50;;;;;;;14.46;96.68;99816.17;111797;1203;24643;-60
2021/08/31 06:33:26;;;;;;;6.00;1.90;;;;;;;14.48;96.62;99817.68;112003;1201;25139;-59
2021/08/31 06:35:57;;;;;;;4.90;1.60;;;;;;;14.50;96.51;99814.81;111869;1201;25105;-59
2021/08/31 06:38:29;;;;;;;6.70;2.00;;;;;;;14.52;96.55;99818.90;111701;1201;25232;-62
2021/08/31 06:41:04;;;;;;;8.10;2.60;;;;;;;14.54;96.67;99817.61;111819;1201;22438;-65
2021/08/31 06:43:38;;;;;;;9.30;2.10;;;;;;;14.57;96.52;99816.52;112154;1201;23025;-60
2021/08/31 06:46:09;;;;;;;6.60;2.20;;;;;;;14.59;96.52;99813.10;112254;1201;22430;-61
2021/08/31 06:48:41;;;;;;;7.30;2.50;;;;;;;14.61;96.49;99822.38;111882;1201;22608;-60
2021/08/31 06:51:13;;;;;;;7.90;2.30;;;;;;;14.64;96.37;99827.94;111976;1201;24033;-61
2021/08/31 06:53:48;;;;;;;8.50;2.40;;;;;;;14.67;96.42;99832.56;111992;1201;25437;-60
2021/08/31 06:56:26;;;;;;;8.10;2.40;;;;;;;14.69;96.37;99832.86;111823;1201;25273;-61
2021/08/31 06:58:58;;;;;;;9.90;2.70;;;;;;;14.70;96.29;99834.14;111952;1203;24607;-59
2021/08/31 07:01:28;;;;;;;8.50;2.30;;;;;;;14.72;96.45;99835.61;111646;1201;24207;-61
2021/08/31 07:04:04;;;;;;;6.60;2.10;;;;;;;14.73;96.29;99832.51;111840;1201;22551;-60
2021/08/31 07:06:37;;;;;;;7.30;3.00;;;;;;;14.74;96.28;99834.59;111858;1201;25346;-60
2021/08/31 07:09:09;;;;;;;10.00;3.30;;;;;;;14.75;96.47;99837.81;111736;1201;22447;-61
2021/08/31 07:11:40;;;;;;;8.20;2.60;;;;;;;14.77;96.45;99844.43;112001;1201;22456;-60
2021/08/31 07:14:12;;;;;;;7.20;2.30;;;;;;;14.80;96.52;99840.13;111764;1202;22436;-60
2021/08/31 07:16:43;;;;;;;10.50;3.10;;;;;;;14.84;96.65;99847.57;112239;1201;25206;-63
2021/08/31 07:19:16;;;;;;;10.20;2.60;;;;;;;14.90;97.12;99845.90;112311;1195;22468;-62
2021/08/31 07:21:50;;;;;;;8.70;3.00;;;;;;;14.96;96.96;99847.16;112986;1201;22439;-62
2021/08/31 07:24:22;;;;;;;6.80;2.40;;;;;;;15.01;96.70;99847.90;112181;1202;22455;-63
2021/08/31 07:26:56;;;;;;;8.20;2.20;;;;;;;15.02;96.74;99846.61;112307;1201;24106;-64
2021/08/31 07:29:49;;;;;;;7.80;2.40;;;;;;;15.02;96.71;99847.44;112323;1201;25061;-62
2021/08/31 07:32:21;;;;;;;7.00;2.40;;;;;;;15.02;97.01;99846.96;112250;1202;25133;-62
2021/08/31 07:34:52;;;;;;;8.20;3.00;;;;;;;15.02;96.76;99851.31;112503;1201;22373;-61
2021/08/31 07:37:23;;;;;;;9.60;2.50;;;;;;;15.02;96.62;99853.06;112338;1201;22451;-63
2021/08/31 07:40:15;;;;;;;7.80;2.50;;;;;;;15.01;96.46;99854.14;112424;1201;25211;-65
2021/08/31 07:42:48;;;;;;;8.40;2.50;;;;;;;15.02;96.46;99850.70;112264;1202;24118;-62
2021/08/31 07:45:21;;;;;;;8.10;2.80;;;;;;;15.03;96.52;99850.39;112453;1195;22533;-61
2021/08/31 07:47:52;;;;;;;7.70;2.70;;;;;;;15.04;96.46;99855.70;112292;1201;22427;-62
2021/08/31 07:50:26;;;;;;;9.80;3.30;;;;;;;15.06;96.39;99851.14;112286;1201;26332;-61
2021/08/31 07:52:59;;;;;;;9.00;3.00;;;;;;;15.08;96.53;99855.98;112343;1201;25695;-62
2021/08/31 07:55:31;;;;;;;9.90;2.20;;;;;;;15.11;96.74;99856.58;112470;1202;22452;-61
2021/08/31 07:58:02;;;;;;;10.10;2.80;;;;;;;15.14;96.53;99857.64;112141;1202;24082;-60
2021/08/31 08:00:34;;;;;;;11.20;3.00;;;;;;;15.16;96.57;99856.76;111708;1201;22450;-61
2021/08/31 08:03:06;;;;;;;6.90;2.30;;;;;;;15.19;96.55;99864.56;111853;1201;22439;-62
2021/08/31 08:05:36;;;;;;;6.20;1.90;;;;;;;15.21;96.48;99864.50;111776;1201;23076;-61
2021/08/31 08:08:11;;;;;;;7.80;2.50;;;;;;;15.24;96.48;99863.71;111961;1201;22539;-60
2021/08/31 08:10:46;;;;;;;8.90;2.40;;;;;;;15.28;96.67;99869.52;112201;1201;22473;-62
2021/08/31 08:13:18;;;;;;;7.00;2.20;;;;;;;15.33;96.77;99869.91;112066;1202;22447;-61
2021/08/31 08:15:50;;;;;;;6.70;2.10;;;;;;;15.33;96.56;99869.65;111917;1201;24096;-61
2021/08/31 08:18:23;;;;;;;5.90;2.10;;;;;;;15.35;96.63;99867.80;112009;1201;24110;-61
2021/08/31 08:20:54;;;;;;;6.90;2.00;;;;;;;15.37;96.71;99874.79;112147;1201;22466;-61
2021/08/31 08:23:29;;;;;;;6.00;1.70;;;;;;;15.38;96.50;99873.80;111739;1201;25326;-62
2021/08/31 08:26:00;;;;;;;5.00;1.70;;;;;;;15.38;96.22;99879.53;111877;1201;25194;-62
2021/08/31 08:28:33;;;;;;;5.60;1.70;;;;;;;15.38;96.38;99880.96;111743;1202;22445;-60
2021/08/31 08:31:05;;;;;;;5.40;1.60;;;;;;;15.39;96.56;99885.98;111985;1201;25520;-62
2021/08/31 08:33:37;;;;;;;5.80;1.50;;;;;;;15.38;96.59;99886.84;112067;1201;24844;-60
2021/08/31 08:36:10;;;;;;;5.40;1.70;;;;;;;15.38;96.85;99884.03;112182;1201;22397;-61
2021/08/31 08:38:42;;;;;;;4.90;1.50;;;;;;;15.39;96.95;99889.84;111888;1201;22449;-60
2021/08/31 08:41:15;;;;;;;6.60;1.90;;;;;;;15.40;96.81;99886.02;111824;1201;23957;-61
2021/08/31 08:43:58;;;;;;;5.80;1.70;;;;;;;15.41;96.81;99888.73;111807;1202;24127;-61
2021/08/31 08:46:32;;;;;;;5.30;1.60;;;;;;;15.41;96.76;99891.95;111745;1201;22449;-61
2021/08/31 08:49:06;;;;;;;4.60;1.30;;;;;;;15.40;96.76;99891.59;111798;1201;24146;-60
2021/08/31 08:51:39;;;;;;;5.80;1.60;;;;;;;15.41;96.98;99896.50;111828;1197;25049;-60
2021/08/31 08:54:12;;;;;;;5.40;1.20;;;;;;;15.43;97.14;99899.69;111857;1201;25090;-61
2021/08/31 08:56:45;;;;;;;4.80;1.30;;;;;;;15.45;97.33;99901.01;111993;1202;22499;-61
2021/08/31 08:59:18;;;;;;;5.30;1.50;;;;;;;15.48;97.18;99893.92;112144;1201;24220;-62
2021/08/31 09:01:51;;;;;;;3.80;1.20;;;;;;;15.52;97.25;99903.32;112563;1202;22447;-61
2021/08/31 09:04:47;;;;;;;4.20;1.20;;;;;;;15.54;97.20;99902.73;111998;1202;24126;-61
2021/08/31 09:07:24;;;;;;;5.20;1.10;;;;;;;15.56;97.34;99905.48;111726;1201;24119;-60
2021/08/31 09:10:17;;;;;;;3.70;1.10;;;;;;;15.56;97.16;99913.31;112053;1202;22444;-60
2021/08/31 09:13:10;;;;;;;4.10;1.20;;;;;;;15.54;96.96;99917.27;111594;1202;22453;-60
2021/08/31 09:16:02;;;;;;;4.90;0.80;;;;;;;15.52;97.14;99915.84;111653;1201;25140;-60
2021/08/31 09:18:34;;;;;;;5.30;1.00;;;;;;;15.52;97.29;99914.27;111726;1202;24174;-60
2021/08/31 09:21:08;;;;;;;3.80;1.10;;;;;;;15.53;97.39;99907.65;111898;1201;22437;-60
2021/08/31 09:23:43;;;;;;;3.10;0.90;;;;;;;15.54;97.53;99903.75;111819;1203;25095;-60
2021/08/31 09:26:18;;;;;;;2.70;0.80;;;;;;;15.56;97.47;99906.98;111899;1205;22426;-60
2021/08/31 09:28:54;;;;;;;2.70;0.90;;;;;;;15.56;97.39;99912.34;111616;1201;22455;-60
2021/08/31 09:31:52;;;;;;;2.10;0.60;;;;;;;15.55;97.38;99918.90;111946;1206;23242;-60
2021/08/31 09:34:47;;;;;;;2.60;0.70;;;;;;;15.54;97.44;99921.88;111840;1201;22502;-60
2021/08/31 09:37:38;;;;;;;2.40;0.70;;;;;;;15.52;97.24;99925.00;112060;1205;22433;-60
2021/08/31 09:40:18;;;;;;;3.10;1.00;;;;;;;15.52;97.16;99926.48;112088;1203;25236;-60
2021/08/31 09:43:00;;;;;;;3.70;1.00;;;;;;;15.51;97.10;99925.77;111806;1201;22507;-60
2021/08/31 09:45:34;;;;;;;3.80;0.90;;;;;;;15.51;97.40;99919.33;112218;1202;24145;-61
2021/08/31 09:48:09;;;;;;;4.00;0.90;;;;;;;15.53;97.47;99924.19;112328;1202;22475;-60
2021/08/31 09:50:43;;;;;;;2.90;0.90;;;;;;;15.54;97.27;99918.55;111912;1203;24071;-61
2021/08/31 09:53:19;;;;;;;3.40;0.80;;;;;;;15.56;97.24;99923.46;111742;1204;22432;-63
2021/08/31 09:56:04;;;;;;;6.00;1.20;;;;;;;15.57;97.22;99920.11;111858;1203;22759;-61
2021/08/31 09:58:39;;;;;;;4.10;1.00;;;;;;;15.61;97.55;99922.64;111696;1203;22976;-61
2021/08/31 10:01:12;;;;;;;4.90;1.00;;;;;;;15.63;97.44;99929.27;111713;1202;25134;-60
2021/08/31 10:03:44;;;;;;;3.30;1.00;;;;;;;15.63;97.13;99936.28;111705;1203;24383;-61
2021/08/31 10:06:15;;;;;;;4.90;1.10;;;;;;;15.63;97.28;99935.77;111709;1201;22468;-61
2021/08/31 10:08:49;;;;;;;4.20;1.30;;;;;;;15.64;97.37;99937.93;111640;1201;22653;-60
2021/08/31 10:11:20;;;;;;;3.30;1.00;;;;;;;15.63;97.25;99939.91;111630;1203;22448;-61
2021/08/31 10:13:56;;;;;;;4.30;1.20;;;;;;;15.63;97.33;99941.45;111602;1203;24147;-60
2021/08/31 10:16:32;;;;;;;3.20;1.00;;;;;;;15.61;97.54;99948.16;111783;1202;22562;-60
2021/08/31 10:19:04;;;;;;;2.70;0.90;;;;;;;15.59;97.33;99945.77;111715;1206;22439;-60
2021/08/31 10:21:57;;;;;;;3.50;1.20;;;;;;;15.57;97.34;99944.11;111785;1201;23101;-60
2021/08/31 10:24:31;;;;;;;4.70;1.30;;;;;;;15.54;97.48;99942.43;111983;1201;22435;-61
2021/08/31 10:27:34;;;;;;;3.40;1.30;;;;;;;15.53;97.39;99945.46;112075;1201;25081;-61
2021/08/31 10:30:40;;;;;;;4.60;1.10;;;;;;;15.53;97.65;99948.07;111934;1202;24134;-62
2021/08/31 10:33:30;;;;;;;5.30;1.50;;;;;;;15.56;97.85;99943.14;111718;1204;23730;-60
2021/08/31 10:36:02;;;;;;;7.20;1.40;;;;;;;15.60;97.95;99944.60;112006;1205;22516;-62
2021/08/31 10:38:52;;;;;;;3.60;1.10;;;;;;;15.64;98.32;99941.14;111629;1206;22910;-59
2021/08/31 10:41:50;;;;;;;4.40;1.30;;;;;;;15.68;98.15;99944.45;111746;1204;24344;-60
2021/08/31 10:44:45;;;;;;;3.30;1.10;;;;;;;15.70;98.19;99948.47;111673;1205;24126;-60
2021/08/31 10:47:34;;;;;;;4.30;1.20;;;;;;;15.70;97.88;99956.86;111644;1205;22451;-61
2021/08/31 10:50:32;;;;;;;4.70;1.30;;;;;;;15.68;97.76;99957.34;111422;1209;25158;-61
2021/08/31 10:53:09;;;;;;;5.80;1.50;;;;;;;15.65;97.45;99956.29;111926;1203;22444;-60
2021/08/31 10:55:45;;;;;;;6.20;1.60;;;;;;;15.64;97.67;99961.72;111645;1204;24112;-60
2021/08/31 10:58:50;;;;;;;5.30;1.30;;;;;;;15.63;97.68;99962.02;111612;1204;25154;-60
2021/08/31 11:01:24;;;;;;;6.60;1.90;;;;;;;15.61;97.56;99959.47;111668;1205;22458;-61
2021/08/31 11:03:57;;;;;;;6.30;1.60;;;;;;;15.62;97.68;99956.76;111780;1206;22445;-60
2021/08/31 11:06:33;;;;;;;6.50;1.90;;;;;;;15.63;97.60;99959.27;111559;1205;22504;-60
2021/08/31 11:09:22;;;;;;;7.40;2.10;;;;;;;15.64;97.72;99961.52;111632;1205;22558;-61
2021/08/31 11:12:08;;;;;;;7.00;2.10;;;;;;;15.65;97.61;99959.04;111714;1202;24073;-61
2021/08/31 11:14:53;;;;;;;8.10;2.30;;;;;;;15.66;97.86;99962.58;111691;1202;22554;-62
2021/08/31 11:17:43;;;;;;;7.00;2.20;;;;;;;15.67;97.84;99959.02;111825;1201;22439;-60
2021/08/31 11:20:21;;;;;;;7.80;2.10;;;;;;;15.67;97.69;99962.55;111721;1203;22451;-60
2021/08/31 11:22:54;;;;;;;11.30;2.20;;;;;;;15.66;97.47;99966.92;112075;1202;22462;-59
2021/08/31 11:25:35;;;;;;;9.60;2.80;;;;;;;15.63;97.38;99971.23;111867;1201;22483;-60
2021/08/31 11:28:27;;;;;;;6.80;2.00;;;;;;;15.61;97.48;99968.11;111950;1202;22925;-60
2021/08/31 11:31:03;;;;;;;8.70;2.30;;;;;;;15.58;97.21;99969.33;111760;1203;25257;-60
2021/08/31 11:33:38;;;;;;;7.50;2.40;;;;;;;15.57;97.33;99970.04;112145;1202;22459;-61
2021/08/31 11:36:12;;;;;;;8.40;2.70;;;;;;;15.56;97.35;99973.31;111804;1202;24110;-60
2021/08/31 11:38:48;;;;;;;7.30;2.20;;;;;;;15.55;97.38;99974.04;111644;1203;25143;-60
2021/08/31 11:41:21;;;;;;;10.50;3.40;;;;;;;15.56;97.35;99977.77;111747;1202;22455;-65
2021/08/31 11:43:55;;;;;;;9.80;3.00;;;;;;;15.57;97.41;99977.15;111987;1201;22452;-60
2021/08/31 11:46:30;;;;;;;8.80;2.90;;;;;;;15.57;97.41;99972.23;111786;1203;22440;-59
2021/08/31 11:49:18;;;;;;;9.50;2.80;;;;;;;15.56;97.31;99976.65;111692;1205;22485;-60
2021/08/31 11:52:04;;;;;;;10.60;3.60;;;;;;;15.56;97.16;99982.12;111981;1203;23062;-59
2021/08/31 11:57:45;;;;;;;;;;;;;;;;;;;;;
2021/08/31 12:00:41;;;;;;;13.60;3.10;;;;;;;15.51;97.21;99994.69;111563;1201;22433;-60
2021/08/31 12:03:37;;;;;;;10.90;3.50;;;;;;;15.49;97.11;99997.20;111619;1206;22473;-60